createdAt,value
2018-09-23T00:01:24.525Z,69.52
2018-09-23T00:03:52.797Z,69.52
2018-09-23T00:06:21.082Z,69.66
2018-09-23T00:08:49.347Z,68.89
2018-09-23T00:11:17.613Z,69.43
2018-09-23T00:13:45.901Z,68.92
2018-09-23T00:16:14.202Z,68.68
2018-09-23T00:18:42.461Z,68.65
2018-09-23T00:21:10.697Z,68.86
2018-09-23T00:23:38.952Z,68.81
2018-09-23T00:26:07.233Z,68.93
2018-09-23T00:28:35.497Z,69.14
2018-09-23T00:31:03.747Z,69.55
2018-09-23T00:33:32.092Z,68.87
2018-09-23T00:36:00.366Z,68.73
2018-09-23T00:38:28.670Z,69.67
2018-09-23T00:40:56.942Z,68.98
2018-09-23T00:43:25.237Z,68.63
2018-09-23T00:45:53.489Z,68.64
2018-09-23T00:48:21.744Z,68.57
2018-09-23T00:50:50.035Z,68.18
2018-09-23T00:53:18.333Z,68.53
2018-09-23T00:55:46.563Z,68.28
2018-09-23T00:58:14.826Z,67.52
2018-09-23T01:00:43.177Z,67.28
2018-09-23T01:03:11.441Z,67.50
2018-09-23T01:05:39.692Z,67.43
2018-09-23T01:08:07.924Z,67.57
2018-09-23T01:10:36.180Z,68.08
2018-09-23T01:13:04.497Z,68.64
2018-09-23T01:15:32.774Z,68.39
2018-09-23T01:18:01.014Z,68.65
2018-09-23T01:20:29.352Z,69.06
2018-09-23T01:22:57.609Z,69.81
2018-09-23T01:25:25.873Z,69.10
2018-09-23T01:27:54.156Z,69.66
2018-09-23T01:30:22.429Z,69.26
2018-09-23T01:32:50.764Z,69.15
2018-09-23T01:35:19.040Z,69.46
2018-09-23T01:37:47.281Z,69.08
2018-09-23T01:40:15.562Z,69.31
2018-09-23T01:42:43.829Z,68.62
2018-09-23T01:45:12.109Z,67.80
2018-09-23T01:47:40.401Z,68.16
2018-09-23T01:50:08.688Z,67.68
2018-09-23T01:52:36.944Z,67.95
2018-09-23T01:55:05.497Z,68.12
2018-09-23T01:57:33.745Z,68.84
2018-09-23T02:00:02.009Z,69.21
2018-09-23T02:02:30.250Z,69.52
2018-09-23T02:04:58.521Z,69.83
2018-09-23T02:07:26.769Z,70.12
2018-09-23T02:09:55.033Z,69.93
2018-09-23T02:12:23.322Z,69.72
2018-09-23T02:14:51.585Z,70.32
2018-09-23T02:17:19.837Z,70.24
2018-09-23T02:19:48.125Z,69.65
2018-09-23T02:22:16.360Z,70.01
2018-09-23T02:24:44.609Z,70.53
2018-09-23T02:27:12.893Z,69.87
2018-09-23T02:29:41.138Z,69.63
2018-09-23T02:32:09.398Z,69.74
2018-09-23T02:34:37.669Z,70.21
2018-09-23T02:37:05.942Z,69.57
2018-09-23T02:39:34.213Z,69.55
2018-09-23T02:42:02.526Z,69.79
2018-09-23T02:44:30.805Z,69.95
2018-09-23T02:46:59.078Z,69.95
2018-09-23T02:49:27.328Z,70.16
2018-09-23T02:51:55.619Z,69.49
2018-09-23T02:54:23.927Z,69.45
2018-09-23T02:56:52.195Z,68.95
2018-09-23T02:59:20.457Z,68.23
2018-09-23T03:01:48.733Z,68.39
2018-09-23T03:04:16.992Z,69.06
2018-09-23T03:06:45.269Z,68.86
2018-09-23T03:09:13.527Z,69.27
2018-09-23T03:11:41.829Z,69.11
2018-09-23T03:14:10.077Z,68.82
2018-09-23T03:16:38.384Z,68.91
2018-09-23T03:19:06.622Z,69.22
2018-09-23T03:21:34.897Z,69.20
2018-09-23T03:24:03.193Z,68.40
2018-09-23T03:26:33.180Z,68.25
2018-09-23T03:29:02.175Z,67.89
2018-09-23T03:31:31.149Z,68.04
2018-09-23T03:34:00.091Z,69.00
2018-09-23T03:36:29.225Z,68.40
2018-09-23T03:38:58.073Z,67.83
2018-09-23T03:41:27.231Z,68.16
2018-09-23T03:43:56.609Z,68.09
2018-09-23T03:46:25.716Z,67.70
2018-09-23T03:48:55.818Z,67.23
2018-09-23T03:51:24.768Z,67.02
2018-09-23T03:53:53.580Z,66.89
2018-09-23T03:56:22.616Z,67.38
2018-09-23T03:58:51.537Z,67.10
2018-09-23T04:01:20.319Z,66.53
2018-09-23T04:03:50.550Z,66.72
2018-09-23T04:06:19.671Z,67.25
2018-09-23T04:08:48.629Z,66.75
2018-09-23T04:11:17.622Z,67.21
2018-09-23T04:13:46.587Z,66.36
2018-09-23T04:16:15.518Z,66.85
2018-09-23T04:18:44.479Z,67.01
2018-09-23T04:21:13.443Z,66.23
2018-09-23T04:23:42.221Z,66.10
2018-09-23T04:26:11.516Z,65.86
2018-09-23T04:28:40.548Z,65.97
2018-09-23T04:31:09.456Z,65.63
2018-09-23T04:33:38.680Z,65.79
2018-09-23T04:36:07.762Z,65.82
2018-09-23T04:38:36.825Z,66.04
2018-09-23T04:41:05.920Z,65.68
2018-09-23T04:43:34.910Z,65.66
2018-09-23T04:46:03.908Z,65.90
2018-09-23T04:48:32.898Z,65.34
2018-09-23T04:51:01.901Z,65.09
2018-09-23T04:53:30.940Z,64.51
2018-09-23T04:55:59.922Z,65.61
2018-09-23T04:58:28.662Z,65.18
2018-09-23T05:00:57.306Z,65.55
2018-09-23T05:03:25.887Z,65.22
2018-09-23T05:05:55.265Z,65.50
2018-09-23T05:08:24.547Z,64.57
2018-09-23T05:10:53.635Z,64.71
2018-09-23T05:13:22.637Z,65.35
2018-09-23T05:15:51.652Z,65.42
2018-09-23T05:18:20.731Z,64.65
2018-09-23T05:20:49.535Z,65.65
2018-09-23T05:23:18.446Z,65.05
2018-09-23T05:25:47.340Z,65.68
2018-09-23T05:28:16.992Z,65.19
2018-09-23T05:30:45.917Z,65.15
2018-09-23T05:33:14.963Z,64.99
2018-09-23T05:35:43.959Z,65.20
2018-09-23T05:38:12.498Z,64.73
2018-09-23T05:40:41.718Z,64.11
2018-09-23T05:43:10.341Z,64.09
2018-09-23T05:45:39.332Z,64.39
2018-09-23T05:48:07.681Z,64.20
2018-09-23T05:50:36.025Z,63.95
2018-09-23T05:53:04.376Z,65.02
2018-09-23T05:55:32.663Z,65.16
2018-09-23T05:58:01.013Z,65.50
2018-09-23T06:00:31.779Z,65.62
2018-09-23T06:03:00.120Z,65.16
2018-09-23T06:05:28.423Z,64.94
2018-09-23T06:07:56.713Z,65.04
2018-09-23T06:10:25.048Z,64.22
2018-09-23T06:12:53.342Z,63.98
2018-09-23T06:15:21.606Z,63.94
2018-09-23T06:17:49.888Z,63.62
2018-09-23T06:20:18.117Z,64.29
2018-09-23T06:22:46.360Z,64.82
2018-09-23T06:25:14.666Z,65.25
2018-09-23T06:27:42.897Z,65.31
2018-09-23T06:30:11.157Z,64.98
2018-09-23T06:32:39.431Z,64.54
2018-09-23T06:35:07.689Z,64.84
2018-09-23T06:37:35.932Z,64.47
2018-09-23T06:40:04.237Z,63.99
2018-09-23T06:42:32.486Z,64.34
2018-09-23T06:45:00.745Z,63.83
2018-09-23T06:47:28.982Z,64.23
2018-09-23T06:49:57.224Z,64.48
2018-09-23T06:52:25.481Z,64.43
2018-09-23T06:54:53.743Z,64.03
2018-09-23T06:57:22.033Z,64.85
2018-09-23T06:59:50.377Z,64.07
2018-09-23T07:02:18.603Z,63.89
2018-09-23T07:04:46.892Z,64.75
2018-09-23T07:07:15.120Z,63.68
2018-09-23T07:09:43.377Z,64.08
2018-09-23T07:12:11.625Z,64.24
2018-09-23T07:14:39.930Z,64.27
2018-09-23T07:17:08.254Z,64.47
2018-09-23T07:19:36.536Z,63.73
2018-09-23T07:22:05.893Z,63.73
2018-09-23T07:24:34.173Z,64.34
2018-09-23T07:27:02.415Z,63.81
2018-09-23T07:29:31.397Z,64.07
2018-09-23T07:31:59.636Z,63.65
2018-09-23T07:34:27.904Z,64.07
2018-09-23T07:36:56.183Z,63.77
2018-09-23T07:39:24.488Z,63.30
2018-09-23T07:41:52.729Z,63.26
2018-09-23T07:44:20.981Z,63.56
2018-09-23T07:46:49.217Z,63.84
2018-09-23T07:49:17.677Z,63.74
2018-09-23T07:51:45.908Z,63.79
2018-09-23T07:54:14.165Z,63.78
2018-09-23T07:56:42.503Z,63.92
2018-09-23T07:59:10.743Z,63.42
2018-09-23T08:01:38.981Z,62.54
2018-09-23T08:04:07.295Z,63.26
2018-09-23T08:06:35.528Z,62.98
2018-09-23T08:09:04.444Z,63.11
2018-09-23T08:11:32.714Z,64.22
2018-09-23T08:14:01.204Z,63.26
2018-09-23T08:16:29.276Z,63.88
2018-09-23T08:18:57.553Z,62.92
2018-09-23T08:21:25.847Z,62.89
2018-09-23T08:23:54.226Z,63.01
2018-09-23T08:26:22.501Z,63.70
2018-09-23T08:28:50.756Z,63.30
2018-09-23T08:31:19.045Z,63.69
2018-09-23T08:33:47.305Z,63.05
2018-09-23T08:36:15.668Z,63.27
2018-09-23T08:38:43.953Z,63.31
2018-09-23T08:41:12.225Z,62.53
2018-09-23T08:43:40.492Z,63.28
2018-09-23T08:46:08.773Z,62.29
2018-09-23T08:48:37.058Z,62.99
2018-09-23T08:51:05.380Z,63.94
2018-09-23T08:53:34.036Z,64.37
2018-09-23T08:56:02.343Z,63.90
2018-09-23T08:58:31.824Z,64.37
2018-09-23T09:01:00.730Z,63.81
2018-09-23T09:03:29.359Z,63.89
2018-09-23T09:05:58.340Z,64.35
2018-09-23T09:08:27.249Z,63.98
2018-09-23T09:10:56.329Z,64.32
2018-09-23T09:13:25.432Z,64.01
2018-09-23T09:15:54.294Z,64.71
2018-09-23T09:18:23.057Z,65.57
2018-09-23T09:20:52.490Z,65.80
2018-09-23T09:23:21.585Z,65.72
2018-09-23T09:25:50.534Z,65.79
2018-09-23T09:28:18.937Z,65.92
2018-09-23T09:30:48.123Z,65.50
2018-09-23T09:33:16.487Z,66.00
2018-09-23T09:35:44.739Z,65.34
2018-09-23T09:38:13.029Z,65.21
2018-09-23T09:40:41.516Z,65.18
2018-09-23T09:43:09.797Z,64.41
2018-09-23T09:45:38.117Z,64.16
2018-09-23T09:48:06.371Z,65.00
2018-09-23T09:50:34.826Z,64.93
2018-09-23T09:53:03.118Z,65.25
2018-09-23T09:55:31.471Z,65.51
2018-09-23T09:57:59.677Z,65.31
2018-09-23T10:00:35.117Z,65.62
2018-09-23T10:03:04.564Z,65.37
2018-09-23T10:05:32.893Z,65.81
2018-09-23T10:08:01.143Z,65.95
2018-09-23T10:10:29.452Z,66.30
2018-09-23T10:12:57.857Z,66.65
2018-09-23T10:15:26.881Z,66.57
2018-09-23T10:17:55.136Z,66.88
2018-09-23T10:20:24.490Z,67.11
2018-09-23T10:22:53.267Z,67.62
2018-09-23T10:25:21.534Z,67.49
2018-09-23T10:27:49.809Z,67.86
2018-09-23T10:30:18.040Z,67.26
2018-09-23T10:32:46.429Z,68.22
2018-09-23T10:35:14.696Z,68.77
2018-09-23T10:37:42.964Z,68.57
2018-09-23T10:40:11.244Z,68.83
2018-09-23T10:42:39.521Z,68.77
2018-09-23T10:45:07.785Z,69.11
2018-09-23T10:47:37.170Z,69.39
2018-09-23T10:50:05.510Z,69.15
2018-09-23T10:52:33.817Z,70.34
2018-09-23T10:55:02.193Z,70.27
2018-09-23T10:57:30.456Z,70.55
2018-09-23T10:59:58.745Z,72.31
2018-09-23T11:02:27.288Z,72.20
2018-09-23T11:04:55.540Z,72.09
2018-09-23T11:07:23.856Z,72.35
2018-09-23T11:09:52.226Z,72.40
2018-09-23T11:12:20.456Z,71.98
2018-09-23T11:14:48.933Z,72.68
2018-09-23T11:17:17.188Z,72.71
2018-09-23T11:19:45.456Z,72.87
2018-09-23T11:22:13.740Z,73.28
2018-09-23T11:24:41.987Z,72.73
2018-09-23T11:27:12.137Z,72.97
2018-09-23T11:29:40.381Z,72.83
2018-09-23T11:32:08.677Z,73.14
2018-09-23T11:34:37.522Z,72.90
2018-09-23T11:37:05.832Z,73.40
2018-09-23T11:39:34.099Z,73.01
2018-09-23T11:42:02.380Z,72.56
2018-09-23T11:44:32.831Z,73.03
2018-09-23T11:47:01.832Z,72.95
2018-09-23T11:49:30.093Z,73.04
2018-09-23T11:51:58.429Z,72.38
2018-09-23T11:54:27.839Z,72.53
2018-09-23T11:56:57.009Z,73.57
2018-09-23T11:59:25.287Z,73.24
2018-09-23T12:01:55.210Z,73.49
2018-09-23T12:04:23.542Z,73.26
2018-09-23T12:06:51.785Z,74.42
2018-09-23T12:09:20.057Z,74.09
2018-09-23T12:11:48.320Z,74.47
2018-09-23T12:14:16.609Z,73.70
2018-09-23T12:16:44.873Z,73.85
2018-09-23T12:19:13.133Z,74.39
2018-09-23T12:21:41.405Z,73.59
2018-09-23T12:24:09.693Z,73.37
2018-09-23T12:26:38.152Z,74.66
2018-09-23T12:29:06.782Z,75.08
2018-09-23T12:31:35.169Z,74.59
2018-09-23T12:34:03.856Z,74.62
2018-09-23T12:36:32.140Z,75.40
2018-09-23T12:39:00.445Z,74.86
2018-09-23T12:41:28.745Z,75.19
2018-09-23T12:43:57.123Z,77.33
2018-09-23T12:46:25.483Z,78.42
2018-09-23T12:48:53.796Z,77.69
2018-09-23T12:51:22.092Z,76.12
2018-09-23T12:53:50.390Z,75.70
2018-09-23T12:56:18.835Z,77.07
2018-09-23T12:58:47.193Z,78.68
2018-09-23T13:01:15.941Z,77.52
2018-09-23T13:03:44.384Z,76.86
2018-09-23T13:06:12.665Z,76.73
2018-09-23T13:08:40.954Z,76.21
2018-09-23T13:11:09.219Z,76.79
2018-09-23T13:13:37.518Z,77.49
2018-09-23T13:16:06.601Z,77.82
2018-09-23T13:18:34.960Z,76.88
2018-09-23T13:21:03.518Z,78.21
2018-09-23T13:23:31.784Z,76.45
2018-09-23T13:26:00.097Z,77.21
2018-09-23T13:28:28.421Z,75.47
2018-09-23T13:30:56.700Z,74.47
2018-09-23T13:33:24.953Z,74.40
2018-09-23T13:35:53.377Z,73.38
2018-09-23T13:38:21.639Z,73.22
2018-09-23T13:40:49.874Z,73.87
2018-09-23T13:43:18.164Z,73.58
2018-09-23T13:45:46.428Z,73.68
2018-09-23T13:48:14.698Z,73.91
2018-09-23T13:50:42.936Z,73.97
2018-09-23T13:53:11.243Z,74.37
2018-09-23T13:55:39.500Z,75.35
2018-09-23T13:58:07.775Z,75.20
2018-09-23T14:00:36.016Z,77.41
2018-09-23T14:03:04.312Z,77.33
2018-09-23T14:05:33.113Z,76.47
2018-09-23T14:08:01.379Z,76.26
2018-09-23T14:10:29.671Z,75.95
2018-09-23T14:12:57.985Z,77.20
2018-09-23T14:15:26.271Z,75.46
2018-09-23T14:17:54.521Z,74.32
2018-09-23T14:20:22.785Z,74.11
2018-09-23T14:22:51.045Z,73.63
2018-09-23T14:25:19.324Z,74.35
2018-09-23T14:27:47.584Z,73.98
2018-09-23T14:30:15.909Z,74.48
2018-09-23T14:32:44.174Z,73.77
2018-09-23T14:35:12.449Z,75.21
2018-09-23T14:37:40.724Z,74.86
2018-09-23T14:40:09.041Z,75.00
2018-09-23T14:42:37.277Z,74.17
2018-09-23T14:45:06.065Z,75.24
2018-09-23T14:47:34.336Z,75.55
2018-09-23T14:50:02.630Z,76.41
2018-09-23T14:52:31.928Z,77.10
2018-09-23T14:55:00.225Z,77.24
2018-09-23T14:57:28.488Z,76.66
2018-09-23T15:00:03.064Z,75.16
2018-09-23T15:02:25.029Z,74.05
2018-09-23T15:04:53.302Z,73.06
2018-09-23T15:07:21.629Z,73.05
2018-09-23T15:09:50.114Z,72.00
2018-09-23T15:12:18.373Z,71.43
2018-09-23T15:14:46.719Z,70.58
2018-09-23T15:17:14.966Z,70.80
2018-09-23T15:19:43.342Z,71.19
2018-09-23T15:22:12.189Z,71.13
2018-09-23T15:24:40.481Z,71.11
2018-09-23T15:27:09.777Z,71.35
2018-09-23T15:29:38.050Z,72.49
2018-09-23T15:32:06.359Z,71.22
2018-09-23T15:34:34.641Z,71.56
2018-09-23T15:37:02.885Z,71.52
2018-09-23T15:39:31.145Z,71.24
2018-09-23T15:41:59.413Z,72.26
2018-09-23T15:44:27.661Z,72.05
2018-09-23T15:46:55.898Z,72.36
2018-09-23T15:49:24.184Z,72.39
2018-09-23T15:51:52.445Z,72.69
2018-09-23T15:54:20.701Z,72.86
2018-09-23T15:56:48.958Z,72.49
2018-09-23T15:59:17.232Z,71.82
2018-09-23T16:01:46.842Z,71.76
2018-09-23T16:04:15.085Z,71.65
2018-09-23T16:06:43.398Z,70.97
2018-09-23T16:09:11.653Z,70.61
2018-09-23T16:11:40.162Z,69.37
2018-09-23T16:14:08.633Z,70.09
2018-09-23T16:16:36.936Z,69.96
2018-09-23T16:19:05.168Z,68.88
2018-09-23T16:21:33.473Z,69.89
2018-09-23T16:24:01.769Z,68.77
2018-09-23T16:26:31.158Z,69.27
2018-09-23T16:28:59.505Z,69.28
2018-09-23T16:31:27.857Z,68.99
2018-09-23T16:33:56.241Z,69.37
2018-09-23T16:36:24.555Z,69.79
2018-09-23T16:38:53.009Z,69.66
2018-09-23T16:41:21.285Z,70.33
2018-09-23T16:43:49.556Z,70.89
2018-09-23T16:46:17.876Z,71.60
2018-09-23T16:48:46.190Z,72.43
2018-09-23T16:51:14.473Z,73.10
2018-09-23T16:53:42.733Z,73.60
2018-09-23T16:56:11.056Z,73.42
2018-09-23T16:58:39.311Z,72.82
2018-09-23T17:01:07.624Z,73.28
2018-09-23T17:03:36.024Z,72.87
2018-09-23T17:06:04.448Z,72.17
2018-09-23T17:08:32.804Z,72.39
2018-09-23T17:11:01.147Z,71.97
2018-09-23T17:13:29.452Z,71.79
2018-09-23T17:15:58.570Z,71.40
2018-09-23T17:18:27.041Z,71.65
2018-09-23T17:20:55.422Z,71.79
2018-09-23T17:23:23.738Z,71.95
2018-09-23T17:25:52.058Z,71.79
2018-09-23T17:28:20.330Z,71.79
2018-09-23T17:30:48.684Z,71.54
2018-09-23T17:33:16.987Z,71.73
2018-09-23T17:35:46.183Z,71.37
2018-09-23T17:38:14.479Z,71.78
2018-09-23T17:40:42.786Z,71.91
2018-09-23T17:43:11.140Z,72.36
2018-09-23T17:45:39.441Z,72.26
2018-09-23T17:48:07.821Z,72.90
2018-09-23T17:50:37.286Z,72.76
2018-09-23T17:53:05.593Z,72.17
2018-09-23T17:55:34.073Z,71.85
2018-09-23T17:58:02.341Z,72.60
2018-09-23T18:00:30.688Z,73.15
2018-09-23T18:02:59.469Z,73.35
2018-09-23T18:05:28.196Z,73.03
2018-09-23T18:07:56.899Z,72.84
2018-09-23T18:10:25.173Z,72.67
2018-09-23T18:12:53.530Z,72.71
2018-09-23T18:15:21.853Z,72.59
2018-09-23T18:17:50.292Z,71.26
2018-09-23T18:20:18.566Z,70.19
2018-09-23T18:22:46.947Z,69.33
2018-09-23T18:25:15.285Z,70.65
2018-09-23T18:27:43.606Z,70.18
2018-09-23T18:30:11.954Z,70.20
2018-09-23T18:32:40.225Z,70.02
2018-09-23T18:35:08.897Z,68.75
2018-09-23T18:37:38.249Z,68.30
2018-09-23T18:40:07.136Z,68.78
2018-09-23T18:42:35.632Z,68.91
2018-09-23T18:45:04.050Z,69.82
2018-09-23T18:47:32.337Z,69.66
2018-09-23T18:50:00.703Z,70.06
2018-09-23T18:52:28.998Z,70.19
2018-09-23T18:55:02.674Z,70.38
2018-09-23T18:57:31.201Z,70.60
2018-09-23T19:00:00.217Z,70.78
2018-09-23T19:02:28.875Z,70.97
2018-09-23T19:04:57.222Z,71.03
2018-09-23T19:07:25.584Z,71.17
2018-09-23T19:09:53.848Z,70.65
2018-09-23T19:12:22.301Z,70.80
2018-09-23T19:14:50.757Z,70.68
2018-09-23T19:17:19.218Z,71.24
2018-09-23T19:19:53.171Z,70.44
2018-09-23T19:22:26.685Z,70.25
2018-09-23T19:24:55.001Z,70.67
2018-09-23T19:27:23.340Z,70.71
2018-09-23T19:29:51.646Z,70.32
2018-09-23T19:32:20.728Z,70.20
2018-09-23T19:34:49.428Z,70.35
2018-09-23T19:37:17.702Z,71.19
2018-09-23T19:39:45.988Z,71.57
2018-09-23T19:42:14.633Z,71.32
2018-09-23T19:44:42.886Z,72.86
2018-09-23T19:47:11.593Z,72.05
2018-09-23T19:49:40.325Z,72.10
2018-09-23T19:52:08.729Z,72.01
2018-09-23T19:54:37.061Z,71.93
2018-09-23T19:57:05.433Z,71.82
2018-09-23T19:59:33.689Z,72.13
2018-09-23T20:02:01.953Z,72.15
2018-09-23T20:04:30.240Z,72.20
2018-09-23T20:06:58.556Z,72.10
2018-09-23T20:09:26.825Z,72.16
2018-09-23T20:11:55.176Z,72.20
2018-09-23T20:14:23.449Z,72.09
2018-09-23T20:16:51.722Z,72.14
2018-09-23T20:19:20.029Z,71.99
2018-09-23T20:21:48.289Z,71.68
2018-09-23T20:24:17.047Z,71.31
2018-09-23T20:26:45.386Z,71.41
2018-09-23T20:29:13.692Z,71.02
2018-09-23T20:31:43.005Z,71.01
2018-09-23T20:34:11.285Z,71.74
2018-09-23T20:36:39.580Z,71.23
2018-09-23T20:39:08.753Z,71.64
2018-09-23T20:41:37.000Z,71.76
2018-09-23T20:44:05.307Z,72.03
2018-09-23T20:46:33.548Z,72.17
2018-09-23T20:49:01.872Z,71.92
2018-09-23T20:51:30.174Z,72.03
2018-09-23T20:53:58.521Z,72.85
2018-09-23T20:56:27.378Z,72.87
2018-09-23T20:58:55.669Z,72.51
2018-09-23T21:01:23.936Z,72.84
2018-09-23T21:03:52.214Z,72.90
2018-09-23T21:06:20.491Z,72.59
2018-09-23T21:08:48.777Z,72.74
2018-09-23T21:11:17.028Z,72.93
2018-09-23T21:13:45.301Z,72.86
2018-09-23T21:16:13.605Z,72.90
2018-09-23T21:18:41.912Z,73.00
2018-09-23T21:21:10.153Z,72.81
2018-09-23T21:23:38.416Z,72.76
2018-09-23T21:26:06.669Z,73.24
2018-09-23T21:28:34.945Z,73.41
2018-09-23T21:31:03.188Z,73.58
2018-09-23T21:33:31.429Z,73.47
2018-09-23T21:35:59.705Z,72.87
2018-09-23T21:38:27.993Z,72.75
2018-09-23T21:40:56.262Z,72.18
2018-09-23T21:43:24.500Z,72.63
2018-09-23T21:45:52.989Z,72.22
2018-09-23T21:48:21.297Z,72.41
2018-09-23T21:50:50.045Z,72.82
2018-09-23T21:53:18.330Z,72.20
2018-09-23T21:55:46.602Z,72.00
2018-09-23T21:58:14.836Z,71.62
2018-09-23T22:00:43.889Z,71.73
2018-09-23T22:03:13.406Z,72.10
2018-09-23T22:05:41.625Z,71.98
2018-09-23T22:08:10.632Z,71.53
2018-09-23T22:10:38.882Z,71.98
2018-09-23T22:13:07.553Z,71.80
2018-09-23T22:15:35.821Z,71.80
2018-09-23T22:18:04.096Z,71.38
2018-09-23T22:20:32.374Z,71.17
2018-09-23T22:23:00.613Z,71.52
2018-09-23T22:25:28.905Z,71.33
2018-09-23T22:27:57.177Z,70.66
2018-09-23T22:30:25.448Z,70.95
2018-09-23T22:32:53.705Z,70.61
2018-09-23T22:35:22.805Z,70.70
2018-09-23T22:37:51.067Z,71.18
2018-09-23T22:40:19.365Z,70.57
2018-09-23T22:42:47.613Z,69.83
2018-09-23T22:45:15.917Z,70.45
2018-09-23T22:47:44.200Z,70.22
2018-09-23T22:50:12.473Z,70.00
2018-09-23T22:52:40.772Z,70.25
2018-09-23T22:55:09.048Z,70.15
2018-09-23T22:57:37.313Z,70.56
2018-09-23T23:00:05.621Z,70.73
2018-09-23T23:02:33.896Z,70.79
2018-09-23T23:05:02.181Z,71.88
2018-09-23T23:07:30.432Z,71.90
2018-09-23T23:09:58.733Z,71.28
2018-09-23T23:12:27.002Z,71.27
2018-09-23T23:14:55.272Z,71.56
2018-09-23T23:17:23.525Z,71.12
2018-09-23T23:19:51.776Z,71.26
2018-09-23T23:22:20.021Z,71.30
2018-09-23T23:24:48.280Z,71.79
2018-09-23T23:27:16.521Z,72.14
2018-09-23T23:29:44.809Z,71.79
2018-09-23T23:32:13.093Z,72.06
2018-09-23T23:34:41.337Z,71.71
2018-09-23T23:37:09.605Z,71.29
2018-09-23T23:39:37.869Z,71.32
2018-09-23T23:42:06.166Z,71.06
2018-09-23T23:44:34.413Z,71.26
2018-09-23T23:47:02.674Z,71.59
2018-09-23T23:49:30.925Z,71.15
2018-09-23T23:51:59.188Z,70.79
2018-09-23T23:54:27.425Z,70.85
2018-09-23T23:56:55.708Z,70.64
2018-09-23T23:59:23.961Z,70.58
